Airfield :
LOGIN :

Register | Disclaimer

   EN    FR    IT 

 










Legend :    VFR   Marginal VFR   IFR   Intensive IFR   Very Intensive IFR
Visi :
Ceiling :
>= 8 km
>= 3000ft
5 to 8 km
1000 to 3000 ft
1500m to 5 km
500 to 1000 ft
800 to 1500m
200 to 500 ft
< 800m
< 200 ft
Symbols :   Thunderstorms  Fog  Heavy snow  Heavy precipitations  Wind > 20 kt
SIGMETs :     Misc.  Thunderstorms  Icing  Turbulence  Mountain Waves  Volcanic Ashes






- Airport Elevation : 12 ft
- IATA code : CQF


LFAC - Calais

CURRENT METAR :
  • 271330Z AUTO 25023G34KT 9999 FEW034 18/09 Q1013

EXPIRED METARs :
  • 271300Z AUTO 25023KT 9999 SCT034 18/10 Q1012
  • 271230Z AUTO 25025KT 9999 FEW030 SCT035 18/10 Q1012
  • 271200Z AUTO 25024G37KT 9999 FEW029 BKN130 OVC140 17/11 Q1011
  • 271130Z AUTO 25022KT 9999 FEW025 BKN100 OVC120 17/12 Q1011
  • 271100Z AUTO 24023KT CAVOK 17/12 Q1010

TAF N/A
ATIS : +33 3 21 00 11 14



MET'MAP, your aeronautical weather chart ! - Copyright ORBIFLY December 2007 - Disclaimer

ORBIFLY MET'MAP TEAM :

Programming & Development : Alexandra Zaïnal
Concept & original design : Baudouin d'Aumeries
Assistance for programming : Marc-Olivier Méhu
Technical & hardware support : Manuel Goepfert

Contact : metmap@orbifly.com




SOURCES & CREDITS :

   NOAA